Time;durP1;ratioP1;P1;durP2;ratioP2;P2;SDS_P1;SDS_P2;PMS_P1;PMS_P2;Temp;Humidity;BMP_temperature;BMP_pressure;BME280_temperature;BME280_humidity;BME280_pressure;Samples;Min_cycle;Max_cycle;Signal;HPM_P1;HPM_P2
2021/10/03 00:01:32;;;;;;;;;;;;;;;17.37;74.85;97839.44;5009429;28;20028;-72
2021/10/03 00:03:58;;;;;;;;;;;;;;;17.27;75.33;97844.09;5010134;28;19913;-73
2021/10/03 00:06:24;;;;;;;;;;;;;;;17.20;75.93;97837.78;5012615;28;20292;-72
2021/10/03 00:08:50;;;;;;;;;;;;;;;17.13;76.68;97816.28;5009767;28;19924;-73
2021/10/03 00:11:16;;;;;;;;;;;;;;;17.11;76.69;97826.31;5009473;28;19919;-73
2021/10/03 00:13:41;;;;;;;;;;;;;;;17.07;76.67;97828.44;5029519;28;19913;-73
2021/10/03 00:16:06;;;;;;;;;;;;;;;17.05;76.98;97824.28;5029197;28;19928;-72
2021/10/03 00:18:32;;;;;;;;;;;;;;;17.03;77.38;97820.94;5029249;28;19924;-73
2021/10/03 00:20:57;;;;;;;;;;;;;;;17.01;77.19;97828.28;5028167;28;20276;-73
2021/10/03 00:23:23;;;;;;;;;;;;;;;17.01;76.97;97830.94;5011073;28;19913;-72
2021/10/03 00:25:48;;;;;;;;;;;;;;;17.00;77.00;97819.44;5029401;28;20084;-72
2021/10/03 00:28:14;;;;;;;;;;;;;;;17.00;77.25;97813.28;5029455;28;19913;-72
2021/10/03 00:30:40;;;;;;;;;;;;;;;17.01;77.09;97821.13;5028966;28;19917;-73
2021/10/03 00:33:06;;;;;;;;;;;;;;;17.02;76.88;97821.97;5028469;28;19921;-72
2021/10/03 00:35:31;;;;;;;;;;;;;;;17.01;77.10;97828.28;5011013;28;19924;-73
2021/10/03 00:37:59;;;;;;;;;;;;;;;17.03;76.76;97826.28;5013634;28;20395;-73
2021/10/03 00:40:25;;;;;;;;;;;;;;;17.05;76.55;97832.28;5029053;28;19956;-74
2021/10/03 00:42:50;;;;;;;;;;;;;;;17.07;76.30;97830.28;5028936;28;19971;-72
2021/10/03 00:45:16;;;;;;;;;;;;;;;17.11;76.35;97836.94;5029600;28;20293;-72
2021/10/03 00:47:42;;;;;;;;;;;;;;;17.13;76.53;97848.25;5011570;28;20024;-71
2021/10/03 00:50:08;;;;;;;;;;;;;;;17.15;76.59;97848.91;5029032;28;20008;-71
2021/10/03 00:52:33;;;;;;;;;;;;;;;17.16;76.66;97848.75;5028151;28;20399;-72
2021/10/03 00:54:58;;;;;;;;;;;;;;;17.15;76.60;97847.13;5028824;28;19920;-72
2021/10/03 00:57:24;;;;;;;;;;;;;;;17.18;76.50;97848.63;5028513;28;20391;-72
2021/10/03 00:59:49;;;;;;;;;;;;;;;17.18;76.58;97848.63;5028743;28;19924;-73
2021/10/03 01:02:14;;;;;;;;;;;;;;;17.22;76.60;97835.78;4983186;28;19913;-72
2021/10/03 01:04:40;;;;;;;;;;;;;;;17.24;76.37;97845.28;5028797;28;20372;-73
2021/10/03 01:07:05;;;;;;;;;;;;;;;17.25;76.27;97835.44;5029126;28;19913;-72
2021/10/03 01:09:30;;;;;;;;;;;;;;;17.23;76.58;97840.97;5028173;28;19917;-72
2021/10/03 01:11:56;;;;;;;;;;;;;;;17.23;76.57;97840.09;5027745;28;19917;-72
2021/10/03 01:14:21;;;;;;;;;;;;;;;17.24;76.41;97833.78;5028749;28;20292;-71
2021/10/03 01:16:48;;;;;;;;;;;;;;;17.24;76.14;97831.13;5028558;28;20000;-72
2021/10/03 01:19:14;;;;;;;;;;;;;;;17.24;76.20;97831.97;5028409;28;19948;-72
2021/10/03 01:21:41;;;;;;;;;;;;;;;17.25;76.21;97833.59;5027250;28;19963;-73
2021/10/03 01:24:06;;;;;;;;;;;;;;;17.26;76.34;97839.78;5029087;28;20300;-73
2021/10/03 01:26:32;;;;;;;;;;;;;;;17.26;76.25;97821.16;5011070;28;19967;-72
2021/10/03 01:28:57;;;;;;;;;;;;;;;17.31;75.99;97821.47;5010230;28;20319;-72
2021/10/03 01:31:24;;;;;;;;;;;;;;;17.29;75.29;97826.97;5009771;28;19913;-74
2021/10/03 01:33:50;;;;;;;;;;;;;;;17.32;75.64;97815.97;5013820;28;19967;-73
2021/10/03 01:36:15;;;;;;;;;;;;;;;17.35;75.43;97810.34;5031525;28;19921;-73
2021/10/03 01:38:40;;;;;;;;;;;;;;;17.36;75.41;97816.47;5014435;28;19917;-73
2021/10/03 01:41:06;;;;;;;;;;;;;;;17.37;74.74;97808.31;5032428;28;19913;-72
2021/10/03 01:43:32;;;;;;;;;;;;;;;17.39;74.62;97798.31;5032135;28;19948;-72
2021/10/03 01:45:57;;;;;;;;;;;;;;;17.42;74.54;97791.81;5031986;28;19913;-73
2021/10/03 01:48:23;;;;;;;;;;;;;;;17.46;74.24;97782.50;5031980;28;19913;-73
2021/10/03 01:50:50;;;;;;;;;;;;;;;17.48;73.94;97775.19;5014226;28;19920;-72
2021/10/03 01:53:20;;;;;;;;;;;;;;;17.49;74.01;97776.00;5013694;28;19920;-73
2021/10/03 01:55:46;;;;;;;;;;;;;;;17.49;73.53;97760.03;5033299;28;20369;-73
2021/10/03 01:58:13;;;;;;;;;;;;;;;17.51;73.59;97772.16;5051669;28;19912;-72
2021/10/03 02:00:39;;;;;;;;;;;;;;;17.53;73.17;97769.34;5034284;28;19919;-72
2021/10/03 02:03:05;;;;;;;;;;;;;;;17.56;73.14;97750.34;5050816;28;19919;-73
2021/10/03 02:05:37;;;;;;;;;;;;;;;17.54;72.57;97761.16;5051053;28;19912;-72
2021/10/03 02:08:03;;;;;;;;;;;;;;;17.58;72.06;97764.34;5051580;28;19912;-72
2021/10/03 02:10:28;;;;;;;;;;;;;;;17.59;72.06;97758.00;5051381;28;19912;-72
2021/10/03 02:12:54;;;;;;;;;;;;;;;17.60;71.59;97744.53;5050671;28;19936;-73
2021/10/03 02:15:22;;;;;;;;;;;;;;;17.63;71.27;97759.34;5052340;28;19929;-73
2021/10/03 02:17:47;;;;;;;;;;;;;;;17.64;70.94;97753.00;5053197;28;19913;-72
2021/10/03 02:20:16;;;;;;;;;;;;;;;17.66;70.28;97742.16;5034959;28;19940;-72
2021/10/03 02:22:42;;;;;;;;;;;;;;;17.66;69.84;97742.16;5056596;28;19919;-72
2021/10/03 02:25:07;;;;;;;;;;;;;;;17.65;69.40;97752.00;5055267;28;19913;-73
2021/10/03 02:27:32;;;;;;;;;;;;;;;17.68;69.19;97743.66;5055826;28;20309;-72
2021/10/03 02:29:58;;;;;;;;;;;;;;;17.70;68.54;97735.50;5037529;28;25478;-73
2021/10/03 02:32:23;;;;;;;;;;;;;;;17.73;68.64;97745.81;5038075;28;19912;-72
2021/10/03 02:34:48;;;;;;;;;;;;;;;17.74;68.12;97742.97;5038899;28;19974;-72
2021/10/03 02:37:13;;;;;;;;;;;;;;;17.74;67.02;97745.63;5052122;28;20001;-73
2021/10/03 02:39:39;;;;;;;;;;;;;;;17.76;67.16;97735.63;5051653;28;19978;-73
2021/10/03 02:42:04;;;;;;;;;;;;;;;17.77;66.88;97731.97;5033073;28;19982;-72
2021/10/03 02:44:29;;;;;;;;;;;;;;;17.79;66.78;97727.31;5047700;28;19928;-73
2021/10/03 02:46:55;;;;;;;;;;;;;;;17.79;66.47;97732.66;5050810;28;19912;-72
2021/10/03 02:49:20;;;;;;;;;;;;;;;17.83;66.26;97721.66;5050974;28;19915;-74
2021/10/03 02:51:46;;;;;;;;;;;;;;;17.78;65.29;97724.81;5050529;28;19913;-73
2021/10/03 02:54:11;;;;;;;;;;;;;;;17.84;64.92;97723.31;5051105;28;19919;-73
2021/10/03 02:56:36;;;;;;;;;;;;;;;17.85;64.65;97722.34;5051781;28;19916;-73
2021/10/03 02:59:01;;;;;;;;;;;;;;;17.90;64.22;97719.97;5052185;28;19920;-73
2021/10/03 03:01:27;;;;;;;;;;;;;;;17.90;64.02;97726.13;5051519;28;19919;-72
2021/10/03 03:03:52;;;;;;;;;;;;;;;17.95;63.72;97717.63;5050712;28;19958;-72
2021/10/03 03:06:18;;;;;;;;;;;;;;;17.97;63.90;97713.78;5050549;28;19913;-73
2021/10/03 03:08:43;;;;;;;;;;;;;;;17.97;63.76;97715.63;5050357;28;19922;-72
2021/10/03 03:11:08;;;;;;;;;;;;;;;17.97;63.53;97702.28;5051225;28;20043;-73
2021/10/03 03:13:34;;;;;;;;;;;;;;;17.96;63.42;97709.44;5051096;28;20288;-73
2021/10/03 03:15:59;;;;;;;;;;;;;;;17.97;63.35;97700.44;5049724;28;19963;-72
2021/10/03 03:18:24;;;;;;;;;;;;;;;17.98;63.58;97704.75;5049430;28;19999;-71
2021/10/03 03:20:50;;;;;;;;;;;;;;;17.95;63.05;97709.63;5050140;28;19948;-73
2021/10/03 03:23:16;;;;;;;;;;;;;;;17.96;62.90;97708.59;5043353;28;19913;-72
2021/10/03 03:25:41;;;;;;;;;;;;;;;17.98;62.57;97717.25;5030168;28;19920;-73
2021/10/03 03:28:07;;;;;;;;;;;;;;;17.99;62.33;97705.59;5030355;28;20377;-72
2021/10/03 03:30:33;;;;;;;;;;;;;;;18.00;62.28;97717.94;5012390;28;19913;-72
2021/10/03 03:32:58;;;;;;;;;;;;;;;17.99;62.40;97711.78;5029580;28;19920;-72
2021/10/03 03:35:24;;;;;;;;;;;;;;;18.01;61.96;97719.56;5030157;28;19917;-73
2021/10/03 03:37:50;;;;;;;;;;;;;;;18.04;62.04;97708.59;5029633;28;19984;-73
2021/10/03 03:40:15;;;;;;;;;;;;;;;18.07;62.02;97710.91;5029467;28;19913;-73
2021/10/03 03:42:41;;;;;;;;;;;;;;;18.10;61.33;97712.38;5029405;28;19920;-73
2021/10/03 03:45:07;;;;;;;;;;;;;;;18.12;61.62;97703.19;5030096;28;19913;-73
2021/10/03 03:47:32;;;;;;;;;;;;;;;18.12;61.50;97695.19;5029830;28;19921;-71
2021/10/03 03:49:58;;;;;;;;;;;;;;;18.10;61.65;97707.88;5029681;28;19913;-72
2021/10/03 03:52:23;;;;;;;;;;;;;;;18.10;61.39;97710.53;5030452;28;19913;-72
2021/10/03 03:54:49;;;;;;;;;;;;;;;18.12;60.92;97705.03;5012105;28;19921;-74
2021/10/03 03:57:14;;;;;;;;;;;;;;;18.12;61.43;97732.53;5031318;28;19912;-73
2021/10/03 03:59:39;;;;;;;;;;;;;;;18.09;60.90;97700.03;5030877;28;19917;-73
2021/10/03 04:02:04;;;;;;;;;;;;;;;18.08;60.81;97701.88;5011331;28;19913;-72
2021/10/03 04:04:30;;;;;;;;;;;;;;;18.13;60.71;97712.84;5028842;28;19935;-71
2021/10/03 04:06:55;;;;;;;;;;;;;;;18.15;60.67;97712.69;5029347;28;20373;-73
2021/10/03 04:09:20;;;;;;;;;;;;;;;18.14;60.36;97709.19;5029263;28;20004;-72
2021/10/03 04:11:45;;;;;;;;;;;;;;;18.18;60.53;97705.16;5011072;28;20284;-72
2021/10/03 04:14:10;;;;;;;;;;;;;;;18.15;60.42;97686.84;5029295;28;20295;-73
2021/10/03 04:16:36;;;;;;;;;;;;;;;18.16;60.28;97698.34;5029667;28;19917;-73
2021/10/03 04:19:01;;;;;;;;;;;;;;;18.18;60.56;97709.66;5028863;28;19917;-73
2021/10/03 04:21:26;;;;;;;;;;;;;;;18.18;60.56;97699.00;5028686;28;20293;-73
2021/10/03 04:23:51;;;;;;;;;;;;;;;18.16;60.36;97683.19;5029211;28;19936;-72
2021/10/03 04:26:17;;;;;;;;;;;;;;;18.17;60.24;97692.84;5011757;28;19920;-73
2021/10/03 04:28:42;;;;;;;;;;;;;;;18.17;60.19;97679.50;5028968;28;19913;-73
2021/10/03 04:31:09;;;;;;;;;;;;;;;18.17;60.33;97686.69;5028874;28;20006;-74
2021/10/03 04:33:34;;;;;;;;;;;;;;;18.17;60.11;97684.00;5029040;28;19913;-72
2021/10/03 04:35:59;;;;;;;;;;;;;;;18.16;60.21;97693.00;5011377;28;19925;-73
2021/10/03 04:38:25;;;;;;;;;;;;;;;18.13;60.60;97675.53;5028904;28;19917;-72
2021/10/03 04:40:50;;;;;;;;;;;;;;;18.09;60.62;97671.56;5028894;28;20344;-73
2021/10/03 04:43:15;;;;;;;;;;;;;;;18.12;60.78;97678.38;5028387;28;19913;-72
2021/10/03 04:45:42;;;;;;;;;;;;;;;18.10;60.65;97677.72;5028791;28;19913;-72
2021/10/03 04:48:07;;;;;;;;;;;;;;;18.12;61.09;97675.72;5029044;28;19917;-73
2021/10/03 04:50:33;;;;;;;;;;;;;;;18.14;61.01;97668.34;5031147;28;19974;-72
2021/10/03 04:52:58;;;;;;;;;;;;;;;18.13;61.10;97664.84;5028298;28;19916;-72
2021/10/03 04:55:23;;;;;;;;;;;;;;;18.15;60.94;97668.19;5029321;28;19917;-73
2021/10/03 04:57:49;;;;;;;;;;;;;;;18.15;60.96;97668.19;5010916;28;20365;-73
2021/10/03 05:00:14;;;;;;;;;;;;;;;18.16;61.20;97674.34;5011049;28;19963;-73
2021/10/03 05:02:39;;;;;;;;;;;;;;;18.16;60.88;97656.53;5015105;28;20331;-73
2021/10/03 05:05:05;;;;;;;;;;;;;;;18.18;61.02;97654.47;5020886;28;19971;-73
2021/10/03 05:07:30;;;;;;;;;;;;;;;18.18;61.07;97653.66;5022168;28;20444;-73
2021/10/03 05:09:55;;;;;;;;;;;;;;;18.20;60.97;97644.47;4990768;28;19913;-72
2021/10/03 05:12:21;;;;;;;;;;;;;;;18.20;61.32;97648.97;5028664;28;20292;-72
2021/10/03 05:14:46;;;;;;;;;;;;;;;18.19;61.19;97636.66;5032864;28;20524;-72
2021/10/03 05:17:11;;;;;;;;;;;;;;;18.18;61.30;97651.81;5032874;28;19913;-72
2021/10/03 05:19:37;;;;;;;;;;;;;;;18.20;60.88;97644.47;5031843;28;19917;-72
2021/10/03 05:22:02;;;;;;;;;;;;;;;18.20;61.41;97657.81;5031376;28;19957;-73
2021/10/03 05:24:28;;;;;;;;;;;;;;;18.21;61.50;97651.50;5032494;28;19913;-73
2021/10/03 05:26:53;;;;;;;;;;;;;;;18.20;62.10;97655.13;5014868;28;19913;-72
2021/10/03 05:29:18;;;;;;;;;;;;;;;18.21;62.32;97645.28;5014580;28;19994;-72
2021/10/03 05:31:43;;;;;;;;;;;;;;;18.21;62.52;97637.28;5031602;28;19913;-73
2021/10/03 05:34:09;;;;;;;;;;;;;;;18.17;62.76;97638.69;5032990;28;20373;-73
2021/10/03 05:36:34;;;;;;;;;;;;;;;18.18;62.89;97651.00;5032383;28;19968;-73
2021/10/03 05:39:00;;;;;;;;;;;;;;;18.14;62.94;97628.34;5032175;28;20400;-73
2021/10/03 05:41:26;;;;;;;;;;;;;;;18.11;63.00;97648.19;5031598;28;19917;-72
2021/10/03 05:43:51;;;;;;;;;;;;;;;18.11;63.11;97629.53;5014156;28;19913;-72
2021/10/03 05:46:16;;;;;;;;;;;;;;;18.12;63.18;97638.38;5014407;28;19917;-73
2021/10/03 05:48:41;;;;;;;;;;;;;;;18.12;63.13;97652.53;5014411;28;19917;-72
2021/10/03 05:51:07;;;;;;;;;;;;;;;18.12;63.27;97625.88;5033910;28;19917;-72
2021/10/03 05:53:32;;;;;;;;;;;;;;;18.13;63.20;97634.69;5031268;28;20365;-73
2021/10/03 05:55:57;;;;;;;;;;;;;;;18.09;63.10;97628.03;5013852;28;19921;-72
2021/10/03 05:58:22;;;;;;;;;;;;;;;18.14;63.28;97623.00;5031668;28;19924;-73
2021/10/03 06:00:48;;;;;;;;;;;;;;;18.14;63.43;97639.88;5031535;28;19917;-72
2021/10/03 06:03:13;;;;;;;;;;;;;;;18.15;63.57;97636.19;5030931;28;19913;-72
2021/10/03 06:05:38;;;;;;;;;;;;;;;18.14;63.43;97634.53;5014362;28;19924;-72
2021/10/03 06:08:03;;;;;;;;;;;;;;;18.17;63.89;97642.16;5031495;28;19913;-73
2021/10/03 06:10:29;;;;;;;;;;;;;;;18.14;63.89;97615.88;5031430;28;19913;-73
2021/10/03 06:12:55;;;;;;;;;;;;;;;18.15;64.23;97656.69;5030917;28;19936;-72
2021/10/03 06:15:21;;;;;;;;;;;;;;;18.14;64.13;97637.19;5031389;28;19925;-71
2021/10/03 06:17:46;;;;;;;;;;;;;;;18.15;64.31;97633.50;5031772;28;19920;-72
2021/10/03 06:20:12;;;;;;;;;;;;;;;18.18;64.69;97646.47;4996500;28;19924;-72
2021/10/03 06:22:38;;;;;;;;;;;;;;;18.16;64.63;97635.19;5010926;28;19918;-73
2021/10/03 06:25:03;;;;;;;;;;;;;;;18.15;64.77;97630.84;5011333;28;19913;-73
2021/10/03 06:27:29;;;;;;;;;;;;;;;18.16;65.48;97647.66;5011601;28;19952;-72
2021/10/03 06:29:54;;;;;;;;;;;;;;;18.13;65.86;97632.84;5011320;28;19917;-72
2021/10/03 06:32:20;;;;;;;;;;;;;;;18.09;66.01;97644.91;4992589;28;19921;-72
2021/10/03 06:34:45;;;;;;;;;;;;;;;18.09;66.61;97668.91;5011107;28;20387;-73
2021/10/03 06:37:10;;;;;;;;;;;;;;;18.10;66.00;97649.22;5011778;28;19917;-73
2021/10/03 06:39:35;;;;;;;;;;;;;;;18.14;66.21;97660.34;5026619;28;19913;-73
2021/10/03 06:42:01;;;;;;;;;;;;;;;18.13;66.29;97653.34;5010809;28;20373;-73
2021/10/03 06:44:26;;;;;;;;;;;;;;;18.18;66.05;97649.16;5011249;28;19945;-73
2021/10/03 06:46:51;;;;;;;;;;;;;;;18.17;66.42;97666.16;5010951;28;19914;-73
2021/10/03 06:49:16;;;;;;;;;;;;;;;18.18;66.86;97659.81;5011706;28;19913;-73
2021/10/03 06:51:43;;;;;;;;;;;;;;;18.17;66.75;97660.84;5011745;28;20370;-71
2021/10/03 06:54:08;;;;;;;;;;;;;;;18.15;67.04;97660.19;5012850;28;20012;-72
2021/10/03 06:56:34;;;;;;;;;;;;;;;18.15;67.59;97673.50;5010962;28;20360;-71
2021/10/03 06:58:59;;;;;;;;;;;;;;;18.12;67.37;97657.88;4994650;28;20392;-75
2021/10/03 07:01:24;;;;;;;;;;;;;;;18.06;68.08;97663.06;5011441;28;19913;-73
2021/10/03 07:03:50;;;;;;;;;;;;;;;18.01;68.28;97672.41;4994431;28;20364;-73
2021/10/03 07:06:15;;;;;;;;;;;;;;;17.97;68.38;97657.78;4994389;28;19962;-74
2021/10/03 07:08:41;;;;;;;;;;;;;;;17.92;69.42;97686.81;5011938;28;19917;-74
2021/10/03 07:11:06;;;;;;;;;;;;;;;17.89;69.21;97700.47;4992905;28;19914;-71
2021/10/03 07:13:31;;;;;;;;;;;;;;;17.89;69.24;97678.31;5010975;28;19923;-72
2021/10/03 07:15:56;;;;;;;;;;;;;;;17.86;68.82;97668.81;5010781;28;20381;-73
2021/10/03 07:18:22;;;;;;;;;;;;;;;17.89;69.40;97675.66;4993036;28;19913;-73
2021/10/03 07:20:47;;;;;;;;;;;;;;;17.90;69.03;97680.00;5010778;28;19913;-72
2021/10/03 07:23:12;;;;;;;;;;;;;;;17.89;69.22;97679.13;5010433;28;19913;-73
2021/10/03 07:25:37;;;;;;;;;;;;;;;17.86;68.67;97670.66;5010524;28;19914;-72
2021/10/03 07:28:03;;;;;;;;;;;;;;;17.87;68.41;97682.97;5010770;28;19960;-72
2021/10/03 07:30:28;;;;;;;;;;;;;;;17.92;68.42;97670.81;5009586;28;19968;-72
2021/10/03 07:32:53;;;;;;;;;;;;;;;17.98;68.34;97679.94;4992134;28;20392;-72
2021/10/03 07:35:19;;;;;;;;;;;;;;;18.01;68.48;97685.75;5010368;28;19924;-72
2021/10/03 07:37:44;;;;;;;;;;;;;;;18.01;68.04;97674.25;5010088;28;20002;-72
2021/10/03 07:40:10;;;;;;;;;;;;;;;18.07;67.83;97684.22;5010798;28;19921;-72
2021/10/03 07:42:36;;;;;;;;;;;;;;;18.12;67.74;97683.72;5009739;28;19917;-73
2021/10/03 07:45:01;;;;;;;;;;;;;;;18.16;67.83;97655.66;4992611;28;19921;-73
2021/10/03 07:47:26;;;;;;;;;;;;;;;18.15;67.58;97681.50;5010473;28;19913;-73
2021/10/03 07:49:51;;;;;;;;;;;;;;;18.18;67.76;97675.00;4992685;28;19920;-72
2021/10/03 07:52:17;;;;;;;;;;;;;;;18.20;67.74;97673.81;4991968;28;19913;-73
2021/10/03 07:54:42;;;;;;;;;;;;;;;18.23;67.31;97664.63;4992985;28;19914;-73
2021/10/03 07:57:07;;;;;;;;;;;;;;;18.19;67.51;97676.69;5012781;28;19913;-73
2021/10/03 07:59:32;;;;;;;;;;;;;;;18.26;68.09;97666.13;5009652;28;19929;-72
2021/10/03 08:01:58;;;;;;;;;;;;;;;18.28;68.15;97664.09;5009435;28;20372;-72
2021/10/03 08:04:23;;;;;;;;;;;;;;;18.28;68.07;97659.59;5010125;28;19995;-73
2021/10/03 08:06:48;;;;;;;;;;;;;;;18.29;67.98;97650.59;5009672;28;19985;-70
2021/10/03 08:09:13;;;;;;;;;;;;;;;18.31;68.17;97655.75;5009833;28;19964;-73
2021/10/03 08:11:39;;;;;;;;;;;;;;;18.30;68.32;97656.75;4991819;28;19971;-72
2021/10/03 08:14:04;;;;;;;;;;;;;;;18.27;68.28;97633.94;5009777;28;19981;-73
2021/10/03 08:16:29;;;;;;;;;;;;;;;18.27;68.29;97654.44;4991644;28;19929;-73
2021/10/03 08:18:58;;;;;;;;;;;;;;;18.24;68.73;97667.13;5009348;28;19921;-73
2021/10/03 08:21:23;;;;;;;;;;;;;;;18.21;68.25;97655.97;4992455;28;19913;-72
2021/10/03 08:23:48;;;;;;;;;;;;;;;18.20;68.40;97652.47;5009857;28;19917;-74
2021/10/03 08:26:14;;;;;;;;;;;;;;;18.21;68.51;97664.81;5009729;28;20350;-72
2021/10/03 08:28:41;;;;;;;;;;;;;;;18.23;68.76;97672.63;5011093;28;19955;-72
2021/10/03 08:31:06;;;;;;;;;;;;;;;18.22;68.20;97655.81;5009682;28;19924;-71
2021/10/03 08:33:31;;;;;;;;;;;;;;;18.22;68.96;97641.66;4991773;28;19909;-72
2021/10/03 08:35:56;;;;;;;;;;;;;;;18.23;68.33;97673.44;5009635;28;19921;-71
2021/10/03 08:38:22;;;;;;;;;;;;;;;18.30;68.42;97665.59;5009447;28;19913;-73
2021/10/03 08:40:47;;;;;;;;;;;;;;;18.33;68.09;97681.22;5009250;28;19914;-73
2021/10/03 08:43:12;;;;;;;;;;;;;;;18.37;68.29;97676.38;4990934;28;20000;-71
2021/10/03 08:45:42;;;;;;;;;;;;;;;18.39;68.52;97682.38;5009488;28;20374;-72
2021/10/03 08:48:07;;;;;;;;;;;;;;;18.45;68.66;97670.97;4992655;28;20308;-72
2021/10/03 08:50:33;;;;;;;;;;;;;;;18.54;68.37;97680.59;5010939;28;19913;-73
2021/10/03 08:52:58;;;;;;;;;;;;;;;18.56;68.59;97677.75;5025636;28;19924;-72
2021/10/03 08:55:23;;;;;;;;;;;;;;;18.60;68.11;97671.03;5011730;28;20367;-72
2021/10/03 08:57:48;;;;;;;;;;;;;;;18.67;68.06;97667.47;5011910;28;20353;-71
2021/10/03 09:00:19;;;;;;;;;;;;;;;18.73;67.96;97657.94;5029383;28;19917;-73
2021/10/03 09:02:55;;;;;;;;;;;;;;;18.78;67.60;97668.94;5032408;28;19913;-74
2021/10/03 09:05:20;;;;;;;;;;;;;;;18.82;67.73;97675.56;5030705;28;20450;-73
2021/10/03 09:07:57;;;;;;;;;;;;;;;18.90;68.15;97676.50;5048859;28;19913;-72
2021/10/03 09:10:22;;;;;;;;;;;;;;;18.86;67.61;97658.19;5048569;28;20007;-73
2021/10/03 09:12:47;;;;;;;;;;;;;;;18.82;68.37;97677.41;5030123;28;19956;-72
2021/10/03 09:15:16;;;;;;;;;;;;;;;18.87;67.74;97669.69;5048960;28;19970;-74
2021/10/03 09:17:48;;;;;;;;;;;;;;;18.88;67.85;97674.84;5030832;28;19917;-71
2021/10/03 09:20:15;;;;;;;;;;;;;;;18.94;67.43;97675.97;5048809;28;19916;-73
2021/10/03 09:22:53;;;;;;;;;;;;;;;19.04;67.54;97663.19;5047870;28;20349;-73
2021/10/03 09:25:33;;;;;;;;;;;;;;;19.08;67.02;97672.50;5048359;28;19920;-71
2021/10/03 09:27:59;;;;;;;;;;;;;;;19.16;67.08;97660.91;5048705;28;19959;-71
2021/10/03 09:30:24;;;;;;;;;;;;;;;19.25;66.29;97696.41;5014037;28;19946;-72
2021/10/03 09:32:53;;;;;;;;;;;;;;;19.43;65.39;97686.19;5047414;28;19971;-73
2021/10/03 09:35:19;;;;;;;;;;;;;;;19.43;65.31;97672.81;5048021;28;19924;-73
2021/10/03 09:37:46;;;;;;;;;;;;;;;19.46;65.35;97691.16;5033006;28;19917;-72
2021/10/03 09:40:13;;;;;;;;;;;;;;;19.49;64.62;97688.13;5028406;28;19913;-72
2021/10/03 09:42:39;;;;;;;;;;;;;;;19.47;64.81;97700.84;5028481;28;19941;-73
2021/10/03 09:45:15;;;;;;;;;;;;;;;19.44;65.57;97700.34;5028655;28;19921;-72
2021/10/03 09:47:41;;;;;;;;;;;;;;;19.34;65.91;97699.81;5029111;28;20355;-74
2021/10/03 09:50:09;;;;;;;;;;;;;;;19.29;66.37;97713.72;5028799;28;19963;-73
2021/10/03 09:52:34;;;;;;;;;;;;;;;19.19;66.34;97703.28;5027726;28;19952;-73
2021/10/03 09:55:03;;;;;;;;;;;;;;;19.16;67.08;97708.16;5031732;28;19961;-73
2021/10/03 09:57:29;;;;;;;;;;;;;;;19.14;67.11;97708.34;5014526;28;19947;-73
2021/10/03 09:59:54;;;;;;;;;;;;;;;19.07;66.95;97720.75;5032180;28;19952;-73
2021/10/03 10:02:19;;;;;;;;;;;;;;;19.02;66.69;97718.63;5014268;28;19917;-73
2021/10/03 10:04:45;;;;;;;;;;;;;;;18.96;67.55;97737.22;5045635;28;20428;-73
2021/10/03 10:07:11;;;;;;;;;;;;;;;18.89;67.21;97734.41;5044179;28;19912;-74
2021/10/03 10:09:37;;;;;;;;;;;;;;;18.90;67.81;97745.94;5051897;28;19913;-73
2021/10/03 10:12:11;;;;;;;;;;;;;;;18.90;68.14;97737.91;5051147;28;19920;-73
2021/10/03 10:14:47;;;;;;;;;;;;;;;18.91;68.45;97731.59;5052147;28;19913;-71
2021/10/03 10:17:24;;;;;;;;;;;;;;;18.91;68.03;97736.94;5028057;28;19965;-73
2021/10/03 10:19:50;;;;;;;;;;;;;;;18.93;67.68;97737.59;5051293;28;19920;-73
2021/10/03 10:22:35;;;;;;;;;;;;;;;18.93;66.96;97737.59;5050926;28;19912;-74
2021/10/03 10:25:04;;;;;;;;;;;;;;;18.92;66.91;97744.75;5050745;28;19917;-73
2021/10/03 10:27:29;;;;;;;;;;;;;;;18.95;66.96;97732.88;5047400;28;19935;-72
2021/10/03 10:29:59;;;;;;;;;;;;;;;18.93;66.81;97722.38;5060825;28;20365;-74
2021/10/03 10:32:48;;;;;;;;;;;;;;;18.94;66.89;97736.56;5050501;28;20131;-73
2021/10/03 10:35:18;;;;;;;;;;;;;;;18.96;67.06;97734.53;5038555;28;19917;-73
2021/10/03 10:37:55;;;;;;;;;;;;;;;19.01;66.54;97741.00;5051940;28;19913;-72
2021/10/03 10:40:21;;;;;;;;;;;;;;;19.04;66.80;97743.31;5051629;28;19996;-73
2021/10/03 10:43:18;;;;;;;;;;;;;;;19.00;66.69;97739.34;5051004;28;20335;-72
2021/10/03 10:45:44;;;;;;;;;;;;;;;19.01;66.76;97749.00;5049491;28;19913;-73
2021/10/03 10:48:09;;;;;;;;;;;;;;;18.99;67.08;97772.41;5051614;28;19913;-73
2021/10/03 10:50:34;;;;;;;;;;;;;;;18.93;66.56;97756.28;5051528;28;19921;-72
2021/10/03 10:53:20;;;;;;;;;;;;;;;18.92;66.74;97760.75;5051194;28;19923;-72
2021/10/03 10:56:11;;;;;;;;;;;;;;;18.90;67.10;97754.75;5050569;28;19917;-73
2021/10/03 10:58:56;;;;;;;;;;;;;;;18.90;67.85;97770.78;5045672;28;19991;-72
2021/10/03 11:01:30;;;;;;;;;;;;;;;18.91;67.85;97779.66;5028757;28;19913;-73
2021/10/03 11:04:20;;;;;;;;;;;;;;;18.84;67.99;97793.69;5030153;28;19960;-74
2021/10/03 11:06:48;;;;;;;;;;;;;;;18.81;67.65;97798.56;5034450;28;20464;-71
2021/10/03 11:09:15;;;;;;;;;;;;;;;18.78;68.17;97793.56;5045620;28;19920;-74
2021/10/03 11:11:56;;;;;;;;;;;;;;;18.74;68.60;97801.06;5049534;28;20273;-73
2021/10/03 11:14:22;;;;;;;;;;;;;;;18.70;69.20;97817.63;5033138;28;19913;-73
2021/10/03 11:16:52;;;;;;;;;;;;;;;18.69;69.45;97798.09;5050852;28;19971;-72
2021/10/03 11:19:30;;;;;;;;;;;;;;;18.71;69.51;97785.41;5032640;28;19964;-72
2021/10/03 11:21:57;;;;;;;;;;;;;;;18.73;69.28;97787.88;5050047;28;19970;-72
2021/10/03 11:24:30;;;;;;;;;;;;;;;18.74;69.75;97789.56;5049693;28;19912;-73
2021/10/03 11:26:55;;;;;;;;;;;;;;;18.70;69.39;97796.25;5050457;28;19913;-73
2021/10/03 11:29:24;;;;;;;;;;;;;;;18.66;69.43;97785.94;5049777;28;19919;-72
2021/10/03 11:31:49;;;;;;;;;;;;;;;18.59;69.70;97776.97;5032994;28;19913;-73
2021/10/03 11:34:25;;;;;;;;;;;;;;;18.57;69.71;97784.31;5012480;28;19966;-72
2021/10/03 11:36:51;;;;;;;;;;;;;;;18.63;69.62;97780.97;5029598;28;19925;-73
2021/10/03 11:39:17;;;;;;;;;;;;;;;18.64;69.45;97758.59;5013049;28;19920;-73
2021/10/03 11:41:49;;;;;;;;;;;;;;;18.67;69.26;97755.56;5020713;28;19999;-71
2021/10/03 11:44:21;;;;;;;;;;;;;;;18.69;69.13;97781.25;5030102;28;19913;-74
2021/10/03 11:46:59;;;;;;;;;;;;;;;18.75;68.72;97799.22;5010324;28;19956;-74
2021/10/03 11:49:28;;;;;;;;;;;;;;;18.83;68.74;97812.56;5010467;28;19913;-74
2021/10/03 11:51:54;;;;;;;;;;;;;;;18.84;68.31;97811.56;5009656;28;19996;-72
2021/10/03 11:54:38;;;;;;;;;;;;;;;18.85;68.27;97830.09;5010112;28;20000;-72
2021/10/03 11:57:16;;;;;;;;;;;;;;;18.96;68.28;97810.13;5041597;28;19925;-73
2021/10/03 11:59:41;;;;;;;;;;;;;;;19.03;66.92;97816.44;5029931;28;19990;-72
2021/10/03 12:02:11;;;;;;;;;;;;;;;19.14;66.89;97811.69;5010986;28;20432;-74
2021/10/03 12:04:36;;;;;;;;;;;;;;;19.26;66.32;97810.25;5029791;28;19927;-74
2021/10/03 12:07:12;;;;;;;;;;;;;;;19.31;66.62;97821.22;5029419;28;19913;-74
2021/10/03 12:09:37;;;;;;;;;;;;;;;19.36;66.24;97826.88;5035288;28;19913;-73
2021/10/03 12:12:02;;;;;;;;;;;;;;;19.35;66.70;97832.41;5031341;28;19923;-72
2021/10/03 12:14:40;;;;;;;;;;;;;;;19.36;66.96;97848.25;5049605;28;19924;-72
2021/10/03 12:17:05;;;;;;;;;;;;;;;19.30;66.91;97852.47;5048533;28;19977;-72
2021/10/03 12:19:33;;;;;;;;;;;;;;;19.36;67.17;97872.28;5049590;28;19980;-73
2021/10/03 12:22:05;;;;;;;;;;;;;;;19.36;67.61;97890.16;5048992;28;19928;-72
2021/10/03 12:24:30;;;;;;;;;;;;;;;19.33;68.07;97886.00;5049860;28;19916;-72
2021/10/03 12:26:56;;;;;;;;;;;;;;;19.31;68.34;97891.53;5048857;28;20008;-74
2021/10/03 12:29:23;;;;;;;;;;;;;;;19.27;68.29;97905.41;5030465;28;20353;-72
2021/10/03 12:31:52;;;;;;;;;;;;;;;19.26;68.84;97888.56;5048946;28;20018;-72
2021/10/03 12:34:21;;;;;;;;;;;;;;;19.31;68.77;97904.06;5049186;28;20011;-72
2021/10/03 12:36:49;;;;;;;;;;;;;;;19.20;68.34;97901.81;5049612;28;19939;-73
2021/10/03 12:39:17;;;;;;;;;;;;;;;19.18;68.61;97899.31;5049374;28;20372;-74
2021/10/03 12:41:42;;;;;;;;;;;;;;;19.18;68.51;97907.31;5046991;28;19912;-73
2021/10/03 12:44:07;;;;;;;;;;;;;;;19.18;69.27;97901.97;5021552;28;20269;-73
2021/10/03 12:46:34;;;;;;;;;;;;;;;19.21;69.52;97898.13;5048005;28;19944;-74